Time;durP1;ratioP1;P1;durP2;ratioP2;P2;SDS_P1;SDS_P2;PMS_P1;PMS_P2;Temp;Humidity;BMP_temperature;BMP_pressure;BME280_temperature;BME280_humidity;BME280_pressure;Samples;Min_cycle;Max_cycle;Signal;HPM_P1;HPM_P2
2021/06/09 00:01:44;;;;;;;2.60;2.13;;;16.70;99.90;;;;;;5056730;28;20428;-82
2021/06/09 00:04:12;;;;;;;2.30;2.10;;;16.60;99.90;;;;;;5044175;28;20469;-83
2021/06/09 00:06:40;;;;;;;2.23;2.03;;;16.60;99.90;;;;;;5045277;28;20477;-82
2021/06/09 00:09:08;;;;;;;3.10;2.80;;;16.80;99.90;;;;;;5049078;28;20761;-82
2021/06/09 00:11:35;;;;;;;2.23;2.00;;;16.70;99.90;;;;;;5037649;28;21473;-82
2021/06/09 00:14:05;;;;;;;2.43;2.20;;;16.80;99.90;;;;;;5057762;28;20446;-82
2021/06/09 00:16:33;;;;;;;3.30;2.43;;;16.70;99.90;;;;;;5043647;28;20466;-82
2021/06/09 00:19:04;;;;;;;2.40;1.90;;;16.70;99.90;;;;;;5049454;28;20439;-82
2021/06/09 00:21:32;;;;;;;3.10;2.40;;;16.70;99.90;;;;;;5037710;28;20402;-82
2021/06/09 00:24:00;;;;;;;4.80;2.77;;;16.80;99.90;;;;;;5060157;28;20448;-84
2021/06/09 00:26:27;;;;;;;1.87;1.77;;;16.60;99.90;;;;;;5049755;28;20481;-82
2021/06/09 00:28:55;;;;;;;2.40;2.20;;;16.50;99.90;;;;;;5043432;28;20418;-82
2021/06/09 00:31:23;;;;;;;2.80;2.03;;;16.30;99.90;;;;;;5039383;28;20728;-82
2021/06/09 00:33:51;;;;;;;2.53;2.33;;;16.40;99.90;;;;;;5056171;28;20419;-81
2021/06/09 00:36:20;;;;;;;3.13;1.90;;;16.60;99.90;;;;;;5046635;28;20472;-81
2021/06/09 00:38:48;;;;;;;2.73;1.80;;;16.70;99.90;;;;;;5050216;28;20465;-81
2021/06/09 00:41:15;;;;;;;2.40;2.20;;;16.90;99.90;;;;;;5044251;28;20483;-80
2021/06/09 00:43:43;;;;;;;4.10;1.77;;;16.80;99.90;;;;;;5046220;28;20422;-81
2021/06/09 00:46:12;;;;;;;2.77;2.53;;;16.90;99.90;;;;;;5034772;28;20432;-80
2021/06/09 00:48:42;;;;;;;3.00;2.70;;;16.80;99.90;;;;;;5058598;28;20395;-80
2021/06/09 00:51:13;;;;;;;4.53;2.57;;;16.70;99.90;;;;;;5043581;28;20398;-79
2021/06/09 00:53:48;;;;;;;3.33;1.70;;;16.80;99.90;;;;;;5035029;28;20501;-80
2021/06/09 00:56:17;;;;;;;2.63;2.33;;;16.90;99.90;;;;;;5044632;28;20529;-81
2021/06/09 00:58:46;;;;;;;2.30;2.10;;;16.80;99.90;;;;;;5050245;28;20460;-82
2021/06/09 01:01:17;;;;;;;4.00;2.60;;;16.70;99.90;;;;;;5036015;28;20439;-82
2021/06/09 01:03:44;;;;;;;1.97;1.77;;;16.60;99.90;;;;;;5056520;28;20443;-81
2021/06/09 01:06:13;;;;;;;2.87;2.03;;;16.50;99.90;;;;;;5042964;28;20514;-80
2021/06/09 01:08:43;;;;;;;2.20;1.83;;;16.30;99.90;;;;;;5042022;28;20491;-80
2021/06/09 01:11:14;;;;;;;1.63;1.53;;;16.30;99.90;;;;;;5043865;28;20475;-82
2021/06/09 01:13:42;;;;;;;2.37;1.90;;;16.30;99.90;;;;;;5051623;28;20460;-80
2021/06/09 01:16:10;;;;;;;3.30;2.40;;;16.10;99.90;;;;;;5043340;28;20416;-80
2021/06/09 01:18:38;;;;;;;2.87;1.80;;;16.00;99.90;;;;;;5048457;28;20486;-81
2021/06/09 01:21:06;;;;;;;2.67;2.07;;;15.70;99.90;;;;;;5049705;28;20375;-81
2021/06/09 01:23:36;;;;;;;2.30;1.87;;;15.60;99.90;;;;;;5050980;28;20465;-81
2021/06/09 01:26:05;;;;;;;3.07;2.20;;;15.70;99.90;;;;;;5053145;28;20473;-81
2021/06/09 01:28:34;;;;;;;2.73;2.13;;;15.90;99.90;;;;;;5062232;28;20804;-80
2021/06/09 01:31:02;;;;;;;2.97;2.33;;;16.20;99.90;;;;;;5048600;28;20486;-79
2021/06/09 01:33:31;;;;;;;3.80;2.47;;;16.30;99.90;;;;;;5048128;28;20461;-81
2021/06/09 01:35:58;;;;;;;2.17;1.97;;;16.40;99.90;;;;;;5051314;28;20413;-80
2021/06/09 01:38:26;;;;;;;2.43;2.20;;;16.30;99.90;;;;;;5039632;28;20463;-81
2021/06/09 01:40:55;;;;;;;2.53;2.33;;;16.30;99.90;;;;;;5059799;28;20398;-81
2021/06/09 01:43:23;;;;;;;2.80;2.10;;;16.20;99.90;;;;;;5052359;28;20554;-81
2021/06/09 01:45:51;;;;;;;2.67;2.33;;;16.10;99.90;;;;;;5047504;28;20437;-81
2021/06/09 01:48:19;;;;;;;3.60;2.23;;;16.10;99.90;;;;;;5040265;28;20501;-80
2021/06/09 01:50:46;;;;;;;3.07;2.77;;;16.00;99.90;;;;;;5055042;28;20419;-81
2021/06/09 01:53:15;;;;;;;2.97;2.10;;;15.90;99.90;;;;;;5047348;28;20473;-81
2021/06/09 01:55:42;;;;;;;3.20;2.50;;;15.80;99.90;;;;;;5051612;28;20461;-81
2021/06/09 01:58:12;;;;;;;2.90;2.60;;;15.80;99.90;;;;;;5051636;28;20492;-81
2021/06/09 02:00:43;;;;;;;3.33;2.67;;;15.80;99.90;;;;;;5050941;28;20423;-81
2021/06/09 02:03:12;;;;;;;3.73;3.20;;;16.00;99.90;;;;;;5053663;28;20472;-82
2021/06/09 02:05:41;;;;;;;2.60;2.40;;;15.90;99.90;;;;;;5048105;28;20435;-80
2021/06/09 02:08:10;;;;;;;3.47;2.97;;;16.10;99.90;;;;;;5054228;28;20391;-82
2021/06/09 02:10:40;;;;;;;10.70;3.87;;;15.90;99.90;;;;;;5065887;28;20466;-82
2021/06/09 02:13:12;;;;;;;2.47;2.27;;;15.80;99.90;;;;;;5063195;28;20590;-82
2021/06/09 02:15:40;;;;;;;3.47;2.90;;;15.70;99.90;;;;;;5061445;28;20393;-83
2021/06/09 02:18:09;;;;;;;4.37;2.90;;;15.60;99.90;;;;;;5055145;28;20545;-83
2021/06/09 02:20:39;;;;;;;2.37;2.17;;;15.60;99.90;;;;;;5069832;28;20367;-82
2021/06/09 02:23:09;;;;;;;2.67;2.47;;;15.40;99.90;;;;;;5059583;28;20462;-82
2021/06/09 02:25:40;;;;;;;2.67;2.20;;;15.50;99.90;;;;;;5061432;28;20468;-82
2021/06/09 02:28:08;;;;;;;2.97;2.67;;;15.50;99.90;;;;;;5049760;28;20548;-82
2021/06/09 02:30:37;;;;;;;3.50;2.17;;;15.50;99.90;;;;;;5046215;28;20409;-82
2021/06/09 02:33:05;;;;;;;5.23;2.40;;;15.60;99.90;;;;;;5041739;28;20492;-82
2021/06/09 02:35:35;;;;;;;2.80;2.60;;;15.60;99.90;;;;;;5057660;28;20438;-82
2021/06/09 02:38:04;;;;;;;2.47;2.27;;;15.70;99.90;;;;;;5046972;28;20428;-82
2021/06/09 02:40:33;;;;;;;2.33;2.13;;;15.90;99.90;;;;;;5054137;28;21084;-82
2021/06/09 02:43:00;;;;;;;1.80;1.70;;;15.80;99.90;;;;;;5047469;28;20466;-83
2021/06/09 02:45:28;;;;;;;2.30;2.10;;;15.70;99.90;;;;;;5050637;28;20477;-82
2021/06/09 02:48:01;;;;;;;2.97;2.43;;;15.70;99.90;;;;;;5048983;28;20481;-82
2021/06/09 02:50:29;;;;;;;2.50;2.30;;;15.60;99.90;;;;;;5057854;28;20470;-82
2021/06/09 02:53:03;;;;;;;2.83;2.40;;;15.40;99.90;;;;;;5058240;28;20446;-81
2021/06/09 02:55:48;;;;;;;3.03;2.70;;;15.40;99.90;;;;;;5062581;28;20503;-83
2021/06/09 02:58:23;;;;;;;3.10;2.90;;;15.60;99.90;;;;;;5060489;28;20461;-80
2021/06/09 03:00:59;;;;;;;3.37;2.83;;;15.60;99.90;;;;;;5045987;28;20463;-80
2021/06/09 03:03:39;;;;;;;4.07;2.83;;;15.40;99.90;;;;;;5035189;28;20483;-81
2021/06/09 03:06:13;;;;;;;3.80;3.10;;;15.30;99.90;;;;;;5046661;28;20391;-79
2021/06/09 03:08:48;;;;;;;5.60;3.33;;;15.10;99.90;;;;;;5035993;28;20464;-80
2021/06/09 03:11:24;;;;;;;4.13;2.63;;;15.10;99.90;;;;;;5059087;28;20509;-79
2021/06/09 03:14:00;;;;;;;4.60;2.53;;;15.10;99.90;;;;;;5036497;22;20468;-79
2021/06/09 03:16:31;;;;;;;3.37;2.73;;;15.10;99.90;;;;;;4999326;28;20388;-77
2021/06/09 03:19:06;;;;;;;2.60;2.40;;;15.00;99.90;;;;;;4988866;28;20526;-78
2021/06/09 03:21:40;;;;;;;3.97;2.80;;;15.10;99.90;;;;;;4999695;28;20475;-78
2021/06/09 03:24:14;;;;;;;2.50;2.30;;;15.10;99.90;;;;;;5003645;28;20470;-77
2021/06/09 03:26:53;;;;;;;3.20;2.90;;;15.20;99.90;;;;;;5018097;28;20485;-77
2021/06/09 03:29:35;;;;;;;2.20;2.00;;;15.20;99.90;;;;;;5023269;28;20459;-77
2021/06/09 03:32:06;;;;;;;3.33;2.43;;;15.30;99.90;;;;;;5018325;28;20385;-77
2021/06/09 03:34:44;;;;;;;6.17;3.27;;;15.40;99.90;;;;;;5017379;28;20443;-77
2021/06/09 03:37:17;;;;;;;3.23;2.93;;;15.70;99.90;;;;;;5019787;28;20446;-77
2021/06/09 03:39:47;;;;;;;3.37;3.07;;;16.60;99.90;;;;;;5017675;28;20501;-76
2021/06/09 03:42:19;;;;;;;3.43;2.63;;;18.10;99.90;;;;;;5017396;28;20430;-77
2021/06/09 03:44:52;;;;;;;2.80;2.50;;;20.00;99.90;;;;;;5007640;28;20477;-78
2021/06/09 03:47:21;;;;;;;4.17;2.60;;;21.50;99.90;;;;;;5018536;28;20479;-78
2021/06/09 03:49:53;;;;;;;2.37;2.17;;;22.40;99.90;;;;;;5023322;28;20381;-78
2021/06/09 03:52:21;;;;;;;3.00;2.50;;;23.60;99.90;;;;;;5008585;28;20377;-78
2021/06/09 03:54:54;;;;;;;2.30;2.10;;;24.50;99.90;;;;;;5017776;28;20393;-79
2021/06/09 03:57:23;;;;;;;2.37;2.10;;;25.00;99.90;;;;;;4999694;28;20835;-79
2021/06/09 03:59:52;;;;;;;2.80;2.23;;;24.90;99.90;;;;;;5000368;28;20471;-79
2021/06/09 04:02:23;;;;;;;2.00;1.70;;;24.80;99.90;;;;;;5002977;28;20798;-79
2021/06/09 04:04:56;;;;;;;1.63;1.53;;;25.10;99.90;;;;;;5001444;28;20441;-79
2021/06/09 04:07:25;;;;;;;2.30;1.40;;;25.80;99.90;;;;;;5002185;28;20441;-79
2021/06/09 04:09:55;;;;;;;2.10;1.77;;;26.40;99.90;;;;;;5001065;28;20463;-79
2021/06/09 04:12:23;;;;;;;2.20;1.97;;;26.70;99.90;;;;;;4989432;28;20484;-78
2021/06/09 04:14:52;;;;;;;5.10;3.10;;;26.60;99.90;;;;;;5004938;28;20405;-79
2021/06/09 04:17:24;;;;;;;2.83;2.17;;;26.40;99.90;;;;;;4997014;28;20457;-79
2021/06/09 04:19:56;;;;;;;2.13;1.93;;;26.50;99.90;;;;;;4986719;28;20493;-78
2021/06/09 04:22:23;;;;;;;3.13;2.83;;;27.00;99.90;;;;;;4998152;28;20447;-79
2021/06/09 04:24:51;;;;;;;3.77;2.77;;;27.80;99.90;;;;;;4998323;28;20496;-79
2021/06/09 04:27:22;;;;;;;3.00;2.10;;;28.10;99.90;;;;;;4999076;28;20488;-78
2021/06/09 04:29:50;;;;;;;3.50;2.07;;;28.20;99.90;;;;;;4998381;28;20446;-78
2021/06/09 04:32:18;;;;;;;2.40;2.20;;;28.90;99.90;;;;;;5006538;28;20487;-78
2021/06/09 04:34:47;;;;;;;3.17;2.23;;;29.20;99.90;;;;;;5010895;28;20499;-78
2021/06/09 04:37:18;;;;;;;3.07;2.50;;;28.70;99.90;;;;;;5024698;28;20487;-77
2021/06/09 04:39:47;;;;;;;3.83;2.10;;;28.20;99.90;;;;;;5029221;28;20468;-77
2021/06/09 04:42:16;;;;;;;3.07;1.97;;;28.50;99.90;;;;;;5018061;28;20420;-77
2021/06/09 04:44:43;;;;;;;2.30;1.83;;;29.60;99.90;;;;;;5016181;28;20510;-78
2021/06/09 04:47:12;;;;;;;3.33;2.93;;;29.80;99.90;;;;;;5032967;28;20453;-77
2021/06/09 04:49:43;;;;;;;3.10;2.70;;;29.40;99.90;;;;;;5025372;28;20418;-77
2021/06/09 04:52:12;;;;;;;3.40;2.67;;;29.30;99.90;;;;;;5031547;28;20487;-78
2021/06/09 04:54:41;;;;;;;2.77;2.50;;;29.70;99.90;;;;;;5028389;28;20492;-77
2021/06/09 04:57:09;;;;;;;3.40;2.93;;;30.40;99.90;;;;;;5028578;28;20440;-78
2021/06/09 04:59:37;;;;;;;3.00;2.73;;;31.10;99.90;;;;;;5008337;28;20542;-78
2021/06/09 05:02:05;;;;;;;2.80;2.33;;;31.70;99.90;;;;;;5026209;28;20771;-79
2021/06/09 05:04:32;;;;;;;3.17;2.80;;;32.10;99.90;;;;;;5018094;28;20464;-77
2021/06/09 05:07:00;;;;;;;4.80;3.00;;;31.40;99.90;;;;;;5003124;28;20504;-79
2021/06/09 05:09:29;;;;;;;3.00;2.70;;;32.10;99.90;;;;;;5005960;28;20426;-77
2021/06/09 05:12:02;;;;;;;2.23;1.70;;;32.50;99.90;;;;;;5006996;28;20489;-78
2021/06/09 05:14:34;;;;;;;2.87;2.20;;;32.80;99.90;;;;;;4994481;28;20469;-77
2021/06/09 05:17:05;;;;;;;1.90;1.63;;;32.60;99.90;;;;;;4988750;28;20472;-79
2021/06/09 05:19:35;;;;;;;3.00;1.80;;;32.90;99.90;;;;;;4989757;28;20481;-79
2021/06/09 05:22:06;;;;;;;2.20;1.73;;;32.40;99.90;;;;;;4976801;28;20430;-78
2021/06/09 05:24:36;;;;;;;2.10;1.90;;;32.60;99.90;;;;;;4981855;28;20871;-79
2021/06/09 05:27:07;;;;;;;1.90;1.77;;;33.60;99.90;;;;;;4976317;28;20413;-79
2021/06/09 05:29:38;;;;;;;2.57;2.33;;;34.50;99.90;;;;;;4973114;28;20492;-78
2021/06/09 05:32:06;;;;;;;3.00;2.10;;;34.10;99.90;;;;;;4983148;28;20415;-78
2021/06/09 05:34:36;;;;;;;2.07;1.87;;;33.80;99.90;;;;;;4979846;28;20507;-78
2021/06/09 05:37:05;;;;;;;4.53;3.40;;;31.50;99.90;;;;;;4995746;28;20440;-78
2021/06/09 05:39:37;;;;;;;4.10;2.40;;;28.70;99.90;;;;;;5001373;28;20493;-78
2021/06/09 05:42:11;;;;;;;4.43;3.00;;;26.20;99.90;;;;;;4994649;28;20466;-78
2021/06/09 05:44:42;;;;;;;4.20;2.83;;;24.20;99.90;;;;;;4994361;28;20540;-78
2021/06/09 05:47:10;;;;;;;6.33;2.70;;;22.90;99.90;;;;;;4995283;28;20460;-79
2021/06/09 05:49:38;;;;;;;7.20;3.03;;;22.00;99.90;;;;;;4996272;28;20422;-78
2021/06/09 05:52:06;;;;;;;2.83;2.63;;;21.30;99.90;;;;;;4994391;28;20400;-79
2021/06/09 05:54:35;;;;;;;4.33;2.27;;;20.90;99.90;;;;;;4993457;28;20473;-79
2021/06/09 05:57:05;;;;;;;3.77;1.97;;;20.70;99.90;;;;;;4995510;28;20426;-79
2021/06/09 05:59:35;;;;;;;4.20;2.50;;;20.60;99.90;;;;;;4994762;28;20441;-80
2021/06/09 06:02:03;;;;;;;2.30;2.10;;;20.30;99.90;;;;;;4982676;28;20439;-79
2021/06/09 06:04:33;;;;;;;3.90;2.13;;;20.20;99.90;;;;;;5013939;28;20820;-79
2021/06/09 06:07:01;;;;;;;3.80;2.10;;;20.30;99.90;;;;;;5015107;28;20407;-79
2021/06/09 06:09:29;;;;;;;1.77;1.63;;;20.30;99.90;;;;;;5013919;28;20985;-77
2021/06/09 06:11:56;;;;;;;2.43;2.00;;;20.40;99.90;;;;;;5012451;28;20411;-77
2021/06/09 06:14:25;;;;;;;3.97;2.00;;;20.40;99.90;;;;;;5009953;28;20484;-77
2021/06/09 06:16:56;;;;;;;2.20;1.87;;;20.40;99.90;;;;;;5013405;28;20479;-77
2021/06/09 06:19:34;;;;;;;2.20;1.50;;;20.50;99.90;;;;;;5017584;28;20528;-78
2021/06/09 06:22:06;;;;;;;1.67;1.50;;;20.60;99.90;;;;;;5021012;28;20417;-77
2021/06/09 06:24:38;;;;;;;2.03;1.67;;;20.50;99.90;;;;;;5023308;28;20448;-77
2021/06/09 06:27:07;;;;;;;2.20;1.83;;;20.40;99.90;;;;;;5025299;28;20448;-77
2021/06/09 06:29:36;;;;;;;2.37;2.17;;;20.60;99.90;;;;;;5023387;28;20417;-77
2021/06/09 06:32:08;;;;;;;2.57;2.27;;;20.80;99.90;;;;;;5020021;28;20423;-78
2021/06/09 06:34:40;;;;;;;2.33;1.90;;;20.90;99.90;;;;;;5021349;28;20453;-78
2021/06/09 06:37:08;;;;;;;3.67;2.40;;;20.80;99.90;;;;;;5001135;28;20422;-78
2021/06/09 06:39:36;;;;;;;2.60;2.33;;;20.80;99.90;;;;;;5000151;28;20477;-78
2021/06/09 06:42:05;;;;;;;3.00;2.40;;;20.80;99.90;;;;;;5007668;28;20422;-77
2021/06/09 06:44:34;;;;;;;2.13;1.93;;;20.80;99.90;;;;;;5006854;28;20449;-77
2021/06/09 06:47:02;;;;;;;3.73;2.53;;;20.90;99.90;;;;;;5007088;28;20412;-77
2021/06/09 06:49:31;;;;;;;2.20;2.00;;;21.10;99.90;;;;;;5002995;28;20435;-78
2021/06/09 06:52:00;;;;;;;2.00;1.80;;;21.20;99.90;;;;;;4998803;28;20416;-78
2021/06/09 06:54:27;;;;;;;2.77;2.20;;;21.40;99.90;;;;;;5000088;28;20476;-78
2021/06/09 06:56:57;;;;;;;3.10;2.50;;;21.30;99.90;;;;;;5000125;28;20426;-78
2021/06/09 06:59:27;;;;;;;3.93;1.77;;;21.30;99.90;;;;;;5002961;28;20453;-77
2021/06/09 07:01:56;;;;;;;3.00;2.70;;;21.30;99.90;;;;;;5003275;28;20430;-77
2021/06/09 07:04:24;;;;;;;2.17;1.90;;;21.20;99.90;;;;;;5003879;28;20469;-77
2021/06/09 07:06:53;;;;;;;3.07;2.40;;;21.10;99.90;;;;;;5027264;28;20425;-77
2021/06/09 07:09:21;;;;;;;2.47;1.60;;;21.10;99.90;;;;;;5026377;28;20412;-77
2021/06/09 07:11:51;;;;;;;1.83;1.70;;;21.10;99.90;;;;;;5018336;28;20429;-79
2021/06/09 07:14:24;;;;;;;2.00;1.80;;;21.30;99.90;;;;;;5016793;28;20435;-77
2021/06/09 07:16:53;;;;;;;3.23;1.77;;;21.50;99.90;;;;;;5014853;28;20457;-78
2021/06/09 07:19:21;;;;;;;2.07;1.90;;;21.60;99.90;;;;;;5015055;28;20428;-77
2021/06/09 07:21:56;;;;;;;2.77;2.07;;;21.70;99.90;;;;;;5012676;28;20831;-77
2021/06/09 07:24:24;;;;;;;2.03;1.40;;;21.60;99.90;;;;;;5014187;28;20850;-77
2021/06/09 07:26:52;;;;;;;1.63;1.53;;;21.70;99.90;;;;;;5014553;28;20437;-77
2021/06/09 07:29:22;;;;;;;2.40;1.97;;;22.00;99.90;;;;;;5015165;28;20425;-77
2021/06/09 07:31:50;;;;;;;2.50;1.90;;;22.10;99.90;;;;;;5016113;28;21098;-77
2021/06/09 07:39:19;;;;;;;3.50;2.13;;;22.20;99.90;;;;;;5016907;28;20637;-77
2021/06/09 07:53:57;;;;;;;2.27;2.07;;;21.90;99.90;;;;;;5014992;28;20206;-77
2021/06/09 07:56:31;;;;;;;4.37;1.50;;;22.00;99.90;;;;;;5014741;28;20189;-78
2021/06/09 08:06:16;;;;;;;2.33;2.00;;;22.60;99.90;;;;;;5018321;28;20615;-79
2021/06/09 08:08:45;;;;;;;1.57;1.47;;;22.70;99.90;;;;;;5023441;28;20591;-79
2021/06/09 08:11:14;;;;;;;2.30;1.33;;;22.70;99.90;;;;;;5023466;28;20425;-77
2021/06/09 08:13:44;;;;;;;2.63;1.77;;;22.90;99.90;;;;;;5023961;28;20461;-78
2021/06/09 08:16:14;;;;;;;2.43;1.53;;;22.90;99.90;;;;;;5022346;28;20433;-78
2021/06/09 08:18:42;;;;;;;1.90;1.70;;;22.70;99.90;;;;;;5021140;28;20430;-79
2021/06/09 08:21:12;;;;;;;1.97;1.70;;;22.60;99.90;;;;;;5017357;28;20476;-79
2021/06/09 08:23:41;;;;;;;2.60;1.80;;;22.50;99.90;;;;;;5017475;28;20819;-78
2021/06/09 08:26:10;;;;;;;1.93;1.50;;;22.60;99.90;;;;;;5015986;28;20433;-79
2021/06/09 08:28:40;;;;;;;1.60;1.30;;;22.60;99.90;;;;;;5018690;28;20395;-79
2021/06/09 08:31:11;;;;;;;1.83;1.30;;;22.80;99.90;;;;;;5016589;28;20751;-78
2021/06/09 08:33:41;;;;;;;2.87;1.53;;;23.00;99.90;;;;;;5016026;28;20449;-78
2021/06/09 08:36:11;;;;;;;2.70;1.63;;;23.40;99.90;;;;;;5016219;28;20421;-78
2021/06/09 08:38:38;;;;;;;1.77;1.30;;;23.40;99.90;;;;;;5016665;28;20815;-79
2021/06/09 08:41:09;;;;;;;2.00;1.20;;;23.20;99.90;;;;;;5014985;28;20503;-79
2021/06/09 08:43:38;;;;;;;2.13;1.20;;;23.20;99.90;;;;;;5015505;28;20453;-78
2021/06/09 08:46:09;;;;;;;2.53;2.33;;;23.10;99.90;;;;;;5018794;28;20417;-78
2021/06/09 08:48:39;;;;;;;2.77;2.10;;;23.10;99.90;;;;;;5033138;28;20395;-79
2021/06/09 08:51:09;;;;;;;1.73;1.63;;;23.10;99.90;;;;;;5034105;28;20425;-80
2021/06/09 08:53:41;;;;;;;1.70;1.37;;;23.30;99.90;;;;;;5031697;28;20444;-79
2021/06/09 08:56:09;;;;;;;2.47;1.60;;;23.60;99.90;;;;;;5014055;28;20470;-78
2021/06/09 08:58:39;;;;;;;2.07;1.40;;;23.80;99.90;;;;;;5014537;28;20424;-79
2021/06/09 09:01:10;;;;;;;1.77;1.43;;;23.80;99.90;;;;;;5015129;28;20468;-77
2021/06/09 09:03:42;;;;;;;4.33;1.40;;;23.50;99.90;;;;;;5013950;28;20765;-79
2021/06/09 09:06:10;;;;;;;2.80;1.43;;;23.40;99.90;;;;;;5015739;28;20503;-78
2021/06/09 09:08:37;;;;;;;1.93;1.43;;;23.40;99.90;;;;;;5015727;28;20379;-78
2021/06/09 09:11:06;;;;;;;1.83;1.67;;;23.40;99.90;;;;;;5014570;28;20404;-78
2021/06/09 09:13:34;;;;;;;1.70;1.30;;;23.50;99.90;;;;;;5048573;22;21074;-80
2021/06/09 09:16:02;;;;;;;1.37;1.27;;;23.60;99.90;;;;;;5055654;28;20458;-80
2021/06/09 09:18:40;;;;;;;1.63;1.40;;;23.80;99.90;;;;;;5047997;28;20882;-80
2021/06/09 09:21:09;;;;;;;2.83;1.97;;;23.80;99.90;;;;;;5039350;28;21018;-80
2021/06/09 09:23:37;;;;;;;2.87;2.10;;;23.70;99.90;;;;;;5027575;28;20433;-80
2021/06/09 09:26:26;;;;;;;2.10;1.57;;;23.70;99.90;;;;;;5019278;28;20839;-80
2021/06/09 09:29:08;;;;;;;1.90;1.53;;;23.70;99.90;;;;;;5020765;28;20940;-80
2021/06/09 09:31:53;;;;;;;1.63;1.53;;;23.80;99.90;;;;;;5022047;28;20468;-79
2021/06/09 09:34:39;;;;;;;2.20;1.80;;;23.90;99.90;;;;;;5020155;28;20463;-81
2021/06/09 09:37:14;;;;;;;6.67;4.10;;;23.90;99.90;;;;;;5021128;28;20441;-80
2021/06/09 09:39:45;;;;;;;5.20;3.63;;;23.90;99.90;;;;;;5022450;28;20503;-80
2021/06/09 09:42:22;;;;;;;3.03;2.37;;;24.10;99.90;;;;;;5021111;28;20447;-81
2021/06/09 09:44:51;;;;;;;2.30;2.10;;;24.00;99.90;;;;;;5018955;28;20503;-81
2021/06/09 09:47:22;;;;;;;1.63;1.50;;;24.10;99.90;;;;;;5015663;28;20437;-80
2021/06/09 09:49:51;;;;;;;2.87;1.97;;;24.10;99.90;;;;;;5015740;28;20798;-80
2021/06/09 09:52:20;;;;;;;1.60;1.50;;;24.30;99.90;;;;;;5018992;28;20421;-80
2021/06/09 09:55:06;;;;;;;4.10;2.70;;;24.30;99.90;;;;;;5022793;28;20436;-81
2021/06/09 09:57:36;;;;;;;1.83;1.67;;;24.40;99.90;;;;;;5022072;28;20433;-79
2021/06/09 10:00:06;;;;;;;1.87;1.77;;;24.40;99.90;;;;;;5029296;28;20858;-80
2021/06/09 10:02:35;;;;;;;2.07;1.63;;;24.50;99.90;;;;;;5037608;28;20463;-79
2021/06/09 10:05:13;;;;;;;2.67;2.20;;;24.70;99.90;;;;;;5039989;28;20424;-80
2021/06/09 10:08:05;;;;;;;3.60;2.77;;;24.90;99.90;;;;;;5040798;28;20427;-80
2021/06/09 10:10:33;;;;;;;2.07;1.77;;;25.20;99.90;;;;;;5039783;28;20403;-80
2021/06/09 10:13:09;;;;;;;2.20;1.90;;;25.10;99.90;;;;;;5041250;28;20833;-81
2021/06/09 10:15:46;;;;;;;1.80;1.70;;;25.00;99.90;;;;;;5041030;28;20485;-79
2021/06/09 10:18:19;;;;;;;2.00;1.80;;;25.00;99.90;;;;;;5041364;28;20428;-81
2021/06/09 10:20:48;;;;;;;2.33;2.13;;;24.90;99.90;;;;;;5028038;28;20434;-81
2021/06/09 10:23:35;;;;;;;2.10;1.90;;;24.60;99.90;;;;;;5046188;28;20447;-79
2021/06/09 10:26:08;;;;;;;2.90;2.00;;;24.40;99.90;;;;;;5043985;28;20464;-79
2021/06/09 10:29:03;;;;;;;1.83;1.57;;;24.40;99.90;;;;;;5046213;28;20424;-80
2021/06/09 10:31:32;;;;;;;2.20;2.00;;;24.60;99.90;;;;;;5039961;28;20428;-80
2021/06/09 10:34:01;;;;;;;2.07;1.37;;;24.80;99.90;;;;;;5039772;28;20603;-80
2021/06/09 10:36:29;;;;;;;3.93;1.83;;;25.00;99.90;;;;;;5044706;28;20431;-80
2021/06/09 10:38:58;;;;;;;2.47;1.53;;;24.80;99.90;;;;;;5043369;28;20412;-80
2021/06/09 10:41:29;;;;;;;3.73;2.60;;;24.80;99.90;;;;;;5041956;28;20854;-81
2021/06/09 10:44:02;;;;;;;2.50;1.77;;;25.10;99.90;;;;;;5041805;28;20458;-80
2021/06/09 10:46:30;;;;;;;2.30;1.80;;;25.10;99.90;;;;;;5040547;28;20973;-81
2021/06/09 10:49:01;;;;;;;1.93;1.73;;;24.70;99.90;;;;;;5040173;28;20482;-80
2021/06/09 10:51:29;;;;;;;2.27;1.67;;;24.80;99.90;;;;;;5041859;28;20403;-84
2021/06/09 10:54:00;;;;;;;2.17;1.97;;;24.80;99.90;;;;;;5042107;28;20454;-81
2021/06/09 10:56:28;;;;;;;2.60;1.87;;;24.70;99.90;;;;;;5041507;28;20416;-80
2021/06/09 10:58:57;;;;;;;3.00;2.17;;;24.70;99.90;;;;;;5041883;28;20417;-79
2021/06/09 11:01:27;;;;;;;1.93;1.70;;;24.90;99.90;;;;;;5043121;28;20464;-80
2021/06/09 11:03:57;;;;;;;2.67;2.00;;;25.10;99.90;;;;;;5040533;28;20423;-80
2021/06/09 11:06:51;;;;;;;1.93;1.73;;;24.90;99.90;;;;;;5041210;28;20484;-80
2021/06/09 11:09:23;;;;;;;2.03;1.80;;;25.10;99.90;;;;;;5028654;28;20447;-80
2021/06/09 11:12:15;;;;;;;2.73;1.83;;;25.10;99.90;;;;;;5040357;28;20416;-80
2021/06/09 11:14:45;;;;;;;2.30;2.00;;;25.40;99.90;;;;;;5032831;28;20499;-79
2021/06/09 11:17:32;;;;;;;4.57;3.43;;;25.70;99.90;;;;;;5041516;28;20420;-81
2021/06/09 11:20:11;;;;;;;4.23;3.73;;;25.80;99.90;;;;;;5037936;28;20429;-80
2021/06/09 11:22:43;;;;;;;3.27;2.10;;;26.10;99.90;;;;;;5027978;28;20463;-80
2021/06/09 11:25:18;;;;;;;2.33;1.83;;;26.30;99.90;;;;;;5020469;28;20993;-80
2021/06/09 11:27:59;;;;;;;2.10;1.70;;;26.40;99.90;;;;;;5019836;28;20467;-80
2021/06/09 11:30:58;;;;;;;2.30;2.00;;;26.70;99.90;;;;;;5019431;28;20409;-80
2021/06/09 11:33:41;;;;;;;1.70;1.60;;;26.50;99.90;;;;;;5019541;28;20497;-80
2021/06/09 11:36:26;;;;;;;2.10;1.90;;;26.40;99.90;;;;;;5018462;28;20541;-80
2021/06/09 11:38:57;;;;;;;1.73;1.53;;;26.20;99.90;;;;;;5002102;28;20448;-79
2021/06/09 11:41:29;;;;;;;1.73;1.63;;;26.00;99.90;;;;;;5019764;28;20460;-80
2021/06/09 11:43:58;;;;;;;2.13;1.93;;;25.80;99.90;;;;;;5021886;28;20824;-80
2021/06/09 11:46:27;;;;;;;1.80;1.60;;;25.60;99.90;;;;;;5020168;28;20453;-80
2021/06/09 11:48:57;;;;;;;4.47;1.93;;;25.50;99.90;;;;;;5021205;28;20421;-82
2021/06/09 11:51:36;;;;;;;3.77;2.90;;;25.60;99.90;;;;;;5025962;28;20421;-79
2021/06/09 11:54:16;;;;;;;1.70;1.50;;;25.90;99.90;;;;;;5025329;28;20468;-82
2021/06/09 11:56:47;;;;;;;2.07;1.67;;;26.00;99.90;;;;;;5022105;28;20449;-80
2021/06/09 11:59:24;;;;;;;1.67;1.50;;;26.30;99.90;;;;;;5020103;28;20425;-79
2021/06/09 12:01:53;;;;;;;1.73;1.43;;;26.10;99.90;;;;;;5020611;28;20468;-80
2021/06/09 12:04:22;;;;;;;2.53;2.13;;;26.10;99.90;;;;;;5020643;28;20452;-79
2021/06/09 12:06:56;;;;;;;2.93;2.30;;;26.10;99.90;;;;;;5023008;28;20457;-81
2021/06/09 12:09:25;;;;;;;2.10;1.90;;;26.40;99.90;;;;;;5025842;28;20781;-80
2021/06/09 12:11:56;;;;;;;2.30;1.50;;;26.70;99.90;;;;;;5027147;28;20887;-80
2021/06/09 12:14:31;;;;;;;1.80;1.70;;;26.80;99.90;;;;;;5023652;28;20443;-79
2021/06/09 12:17:19;;;;;;;2.33;2.13;;;26.50;99.90;;;;;;5029833;28;20423;-80
2021/06/09 12:19:49;;;;;;;2.23;1.83;;;26.50;99.90;;;;;;5033503;28;20443;-80
2021/06/09 12:22:19;;;;;;;2.80;2.23;;;26.40;99.90;;;;;;5041367;28;20475;-80
2021/06/09 12:24:59;;;;;;;1.80;1.40;;;26.30;99.90;;;;;;5032110;28;20444;-79
2021/06/09 12:27:32;;;;;;;2.77;1.47;;;26.20;99.90;;;;;;5028960;28;20485;-79
2021/06/09 12:30:01;;;;;;;1.60;1.30;;;26.30;99.90;;;;;;5020958;28;20419;-80
2021/06/09 12:32:36;;;;;;;1.70;1.50;;;26.50;99.90;;;;;;5019203;28;20468;-80
2021/06/09 12:35:06;;;;;;;2.23;1.43;;;26.60;99.90;;;;;;5019509;28;20516;-82
2021/06/09 12:37:39;;;;;;;2.63;2.43;;;27.10;99.90;;;;;;5015942;28;20448;-81
2021/06/09 12:40:11;;;;;;;1.60;1.50;;;27.20;99.90;;;;;;5019265;28;20421;-81
2021/06/09 12:42:47;;;;;;;1.93;1.77;;;26.50;99.90;;;;;;5017471;28;20484;-81
2021/06/09 12:45:16;;;;;;;2.53;1.50;;;26.70;99.90;;;;;;5020308;28;20436;-81
2021/06/09 12:47:48;;;;;;;1.90;1.70;;;27.00;99.90;;;;;;5025229;28;20494;-80
2021/06/09 12:50:20;;;;;;;3.10;1.70;;;27.40;99.90;;;;;;5020804;28;20429;-81
2021/06/09 12:52:50;;;;;;;1.97;1.77;;;27.90;99.90;;;;;;5023230;28;20838;-80
2021/06/09 12:55:24;;;;;;;4.50;2.30;;;27.60;99.90;;;;;;5030424;28;20495;-80
2021/06/09 12:57:55;;;;;;;2.77;2.00;;;27.80;99.90;;;;;;5021990;28;20417;-81
2021/06/09 13:00:35;;;;;;;2.10;1.90;;;28.10;99.90;;;;;;5019775;28;20480;-81
2021/06/09 13:03:15;;;;;;;1.90;1.47;;;28.30;99.90;;;;;;5026748;28;20514;-81
2021/06/09 13:05:48;;;;;;;2.13;1.60;;;27.90;99.90;;;;;;5016555;28;20482;-81
2021/06/09 13:08:17;;;;;;;2.10;1.60;;;27.40;99.90;;;;;;5052456;28;20680;-80
2021/06/09 13:10:47;;;;;;;2.70;1.70;;;27.30;99.90;;;;;;5024119;28;20471;-80
2021/06/09 13:13:19;;;;;;;2.00;1.63;;;27.30;99.90;;;;;;5043555;28;20513;-80
2021/06/09 13:15:52;;;;;;;2.53;1.93;;;26.90;99.90;;;;;;5051545;28;20428;-80
2021/06/09 13:18:47;;;;;;;4.20;1.50;;;26.50;99.90;;;;;;5034209;28;20464;-82
2021/06/09 13:21:25;;;;;;;2.23;1.83;;;26.20;99.90;;;;;;5035596;28;20444;-80
2021/06/09 13:23:56;;;;;;;2.40;2.20;;;26.10;99.90;;;;;;5064493;28;20436;-81
2021/06/09 13:26:25;;;;;;;1.80;1.70;;;26.10;99.90;;;;;;5047527;28;20437;-81
2021/06/09 13:28:54;;;;;;;2.20;2.00;;;26.10;99.90;;;;;;5018836;28;20514;-80
2021/06/09 13:31:29;;;;;;;1.77;1.67;;;26.60;99.90;;;;;;5028056;28;20503;-80
2021/06/09 13:33:59;;;;;;;2.60;2.17;;;27.00;99.90;;;;;;5025530;28;20491;-80